Accueil
METAR-TAF:

METAR-TAF

Aéroports :

Aéroport international de Piarco

Port-d'Espagne, Trinité, Trinité-et-Tobago

latitude: 10-37N, longitude: 061-21W, altitude: 12 m

Observation

Le bulletin a été fait il y a 33 minutes, à 00:00 UTC
Vent calme
Température 26°C
Humidité 89%
Pression 1009 hPa
Visibilité 10 km ou plus
Quelques nuages à une hauteur de 1600 ft

METAR: TTPP 180000Z 00000KT 9999 FEW016 26/24 Q1009 NOSIG

Heure: 20:33 (00:33 UTC)

Prévision

Le bulletin a été fait il y a 2 heures et 33 minutes, à 22:00 UTC
Prévision valable du 18 à 00 UTC au 18 à 24 UTC
Vent kt de nord
Visibilité 10 km ou plus
Quelques nuages à une hauteur de 1600 ft
Evoluant progressivement
du 18 à 12 UTC au 18 à 14 UTC
Nuages épars à une hauteur de 1800 ft
Nuages épars à une hauteur de 3800 ft

TAF: TTPP 172200Z 1800/1824 00000KT 9999 FEW016 BECMG 1812/1814 SCT018 SCT038

Observations et prévisions météorologiques de plus de 4000 aéroports (messages METAR et TAF).

Les stations disponibles sont représentées par des disques jaunes et rouges sur la carte.

Passer la souris dessus pour voir le nom de la station.

Cliquer dessus pour voir les observations et prévisions météorologiques.

Pour changer de carte: cliquez sur les boutons verts avec une croix noire pour zoomer, sur le bouton vert avec un tiret pour effectuer un zoom arrière, ou sur les flèches vertes pour les cartes adjacentes.


METAR-TAF: